sensor_id;sensor_type;location;lat;lon;timestamp;pressure;altitude;pressure_sealevel;temperature;humidity
67052;BME280;53957;47.222;18.670;2023-04-03T00:00:37;100150.84;;;4.71;98.30
67052;BME280;53957;47.222;18.670;2023-04-03T00:03:43;100154.63;;;4.58;97.66
67052;BME280;53957;47.222;18.670;2023-04-03T00:06:46;100155.47;;;4.58;98.86
67052;BME280;53957;47.222;18.670;2023-04-03T00:09:50;100151.09;;;4.69;98.42
67052;BME280;53957;47.222;18.670;2023-04-03T00:12:54;100161.75;;;4.74;98.80
67052;BME280;53957;47.222;18.670;2023-04-03T00:15:58;100150.72;;;4.60;98.90
67052;BME280;53957;47.222;18.670;2023-04-03T00:19:01;100163.44;;;4.63;97.26
67052;BME280;53957;47.222;18.670;2023-04-03T00:22:04;100155.56;;;4.68;96.83
67052;BME280;53957;47.222;18.670;2023-04-03T00:25:10;100156.44;;;4.52;98.30
67052;BME280;53957;47.222;18.670;2023-04-03T00:28:13;100164.66;;;4.56;98.07
67052;BME280;53957;47.222;18.670;2023-04-03T00:31:20;100166.69;;;4.48;97.60
67052;BME280;53957;47.222;18.670;2023-04-03T00:34:44;100177.44;;;4.64;95.88
67052;BME280;53957;47.222;18.670;2023-04-03T00:37:47;100173.75;;;4.65;95.65
67052;BME280;53957;47.222;18.670;2023-04-03T00:40:50;100178.41;;;4.58;97.85
67052;BME280;53957;47.222;18.670;2023-04-03T00:43:54;100182.59;;;4.54;97.71
67052;BME280;53957;47.222;18.670;2023-04-03T00:47:05;100173.25;;;4.46;97.83
67052;BME280;53957;47.222;18.670;2023-04-03T00:50:10;100177.72;;;4.45;97.95
67052;BME280;53957;47.222;18.670;2023-04-03T00:53:21;100167.16;;;4.45;98.32
67052;BME280;53957;47.222;18.670;2023-04-03T00:56:26;100164.62;;;4.33;100.00
67052;BME280;53957;47.222;18.670;2023-04-03T00:59:34;100157.66;;;4.27;100.00
67052;BME280;53957;47.222;18.670;2023-04-03T01:02:38;100158.78;;;4.31;100.00
67052;BME280;53957;47.222;18.670;2023-04-03T01:05:44;100171.41;;;4.29;100.00
67052;BME280;53957;47.222;18.670;2023-04-03T01:08:57;100171.66;;;4.28;100.00
67052;BME280;53957;47.222;18.670;2023-04-03T01:12:25;100166.84;;;4.25;100.00
67052;BME280;53957;47.222;18.670;2023-04-03T01:15:28;100162.78;;;4.34;100.00
67052;BME280;53957;47.222;18.670;2023-04-03T01:18:39;100170.62;;;4.29;99.17
67052;BME280;53957;47.222;18.670;2023-04-03T01:22:01;100170.22;;;4.37;99.36
67052;BME280;53957;47.222;18.670;2023-04-03T01:25:28;100169.28;;;4.26;100.00
67052;BME280;53957;47.222;18.670;2023-04-03T01:28:53;100162.06;;;4.22;99.06
67052;BME280;53957;47.222;18.670;2023-04-03T01:31:59;100174.38;;;4.33;98.46
67052;BME280;53957;47.222;18.670;2023-04-03T01:35:07;100176.94;;;4.28;99.21
67052;BME280;53957;47.222;18.670;2023-04-03T01:38:11;100182.03;;;4.34;99.59
67052;BME280;53957;47.222;18.670;2023-04-03T01:41:15;100183.00;;;4.28;98.46
67052;BME280;53957;47.222;18.670;2023-04-03T01:44:40;100184.28;;;4.26;98.81
67052;BME280;53957;47.222;18.670;2023-04-03T01:47:44;100177.84;;;4.16;99.59
67052;BME280;53957;47.222;18.670;2023-04-03T01:50:47;100171.03;;;4.21;98.94
67052;BME280;53957;47.222;18.670;2023-04-03T01:53:49;100174.38;;;4.16;99.26
67052;BME280;53957;47.222;18.670;2023-04-03T01:56:54;100175.84;;;4.24;98.89
67052;BME280;53957;47.222;18.670;2023-04-03T01:59:58;100181.12;;;4.24;100.00
67052;BME280;53957;47.222;18.670;2023-04-03T02:03:02;100179.44;;;4.17;100.00
67052;BME280;53957;47.222;18.670;2023-04-03T02:06:05;100170.78;;;4.22;100.00
67052;BME280;53957;47.222;18.670;2023-04-03T02:09:08;100184.06;;;4.10;99.71
67052;BME280;53957;47.222;18.670;2023-04-03T02:12:12;100177.75;;;4.11;100.00
67052;BME280;53957;47.222;18.670;2023-04-03T02:15:15;100177.50;;;4.13;100.00
67052;BME280;53957;47.222;18.670;2023-04-03T02:18:20;100178.22;;;4.08;100.00
67052;BME280;53957;47.222;18.670;2023-04-03T02:21:24;100174.53;;;4.09;100.00
67052;BME280;53957;47.222;18.670;2023-04-03T02:24:30;100172.16;;;4.08;100.00
67052;BME280;53957;47.222;18.670;2023-04-03T02:27:54;100174.53;;;4.09;100.00
67052;BME280;53957;47.222;18.670;2023-04-03T02:31:19;100180.84;;;4.08;100.00
67052;BME280;53957;47.222;18.670;2023-04-03T02:34:23;100185.25;;;4.19;100.00
67052;BME280;53957;47.222;18.670;2023-04-03T02:37:27;100190.13;;;4.11;100.00
67052;BME280;53957;47.222;18.670;2023-04-03T02:40:31;100195.16;;;4.12;99.95
67052;BME280;53957;47.222;18.670;2023-04-03T02:43:37;100187.91;;;4.02;100.00
67052;BME280;53957;47.222;18.670;2023-04-03T02:46:40;100194.94;;;3.97;100.00
67052;BME280;53957;47.222;18.670;2023-04-03T02:49:44;100195.50;;;3.99;100.00
67052;BME280;53957;47.222;18.670;2023-04-03T02:52:48;100188.94;;;4.01;100.00
67052;BME280;53957;47.222;18.670;2023-04-03T02:55:52;100189.09;;;3.95;100.00
67052;BME280;53957;47.222;18.670;2023-04-03T02:58:58;100188.63;;;3.98;100.00
67052;BME280;53957;47.222;18.670;2023-04-03T03:02:04;100185.81;;;4.05;100.00
67052;BME280;53957;47.222;18.670;2023-04-03T03:05:08;100194.03;;;3.91;100.00
67052;BME280;53957;47.222;18.670;2023-04-03T03:08:16;100195.56;;;3.87;100.00
67052;BME280;53957;47.222;18.670;2023-04-03T03:11:23;100207.97;;;3.86;100.00
67052;BME280;53957;47.222;18.670;2023-04-03T03:14:26;100218.75;;;3.85;100.00
67052;BME280;53957;47.222;18.670;2023-04-03T03:17:28;100224.19;;;3.78;100.00
67052;BME280;53957;47.222;18.670;2023-04-03T03:20:31;100217.38;;;3.82;100.00
67052;BME280;53957;47.222;18.670;2023-04-03T03:23:37;100219.94;;;3.77;100.00
67052;BME280;53957;47.222;18.670;2023-04-03T03:26:41;100224.25;;;3.83;100.00
67052;BME280;53957;47.222;18.670;2023-04-03T03:29:44;100222.31;;;3.79;100.00
67052;BME280;53957;47.222;18.670;2023-04-03T03:32:48;100217.94;;;3.84;100.00
67052;BME280;53957;47.222;18.670;2023-04-03T03:35:53;100221.22;;;3.75;100.00
67052;BME280;53957;47.222;18.670;2023-04-03T03:38:58;100219.09;;;3.60;100.00
67052;BME280;53957;47.222;18.670;2023-04-03T03:42:01;100223.22;;;3.55;100.00
67052;BME280;53957;47.222;18.670;2023-04-03T03:45:06;100210.69;;;3.46;100.00
67052;BME280;53957;47.222;18.670;2023-04-03T03:48:09;100210.53;;;3.52;100.00
67052;BME280;53957;47.222;18.670;2023-04-03T03:51:13;100200.34;;;3.44;100.00
67052;BME280;53957;47.222;18.670;2023-04-03T03:54:18;100208.03;;;3.46;100.00
67052;BME280;53957;47.222;18.670;2023-04-03T03:57:21;100188.44;;;3.42;100.00
67052;BME280;53957;47.222;18.670;2023-04-03T04:00:25;100190.81;;;3.43;100.00
67052;BME280;53957;47.222;18.670;2023-04-03T04:03:29;100194.94;;;3.51;100.00
67052;BME280;53957;47.222;18.670;2023-04-03T04:06:38;100184.25;;;3.29;100.00
67052;BME280;53957;47.222;18.670;2023-04-03T04:09:43;100193.53;;;3.19;100.00
67052;BME280;53957;47.222;18.670;2023-04-03T04:12:46;100199.16;;;3.23;100.00
67052;BME280;53957;47.222;18.670;2023-04-03T04:15:53;100193.69;;;3.13;100.00
67052;BME280;53957;47.222;18.670;2023-04-03T04:18:57;100197.72;;;3.03;100.00
67052;BME280;53957;47.222;18.670;2023-04-03T04:22:01;100198.44;;;2.99;100.00
67052;BME280;53957;47.222;18.670;2023-04-03T04:25:06;100197.28;;;2.95;100.00
67052;BME280;53957;47.222;18.670;2023-04-03T04:28:11;100194.44;;;2.84;100.00
67052;BME280;53957;47.222;18.670;2023-04-03T04:31:15;100199.13;;;2.82;100.00
67052;BME280;53957;47.222;18.670;2023-04-03T04:34:39;100205.22;;;2.83;100.00
67052;BME280;53957;47.222;18.670;2023-04-03T04:37:42;100216.06;;;2.86;100.00
67052;BME280;53957;47.222;18.670;2023-04-03T04:40:48;100215.41;;;2.79;100.00
67052;BME280;53957;47.222;18.670;2023-04-03T04:43:51;100211.84;;;2.85;100.00
67052;BME280;53957;47.222;18.670;2023-04-03T04:46:55;100223.75;;;2.88;100.00
67052;BME280;53957;47.222;18.670;2023-04-03T04:49:58;100226.72;;;2.92;100.00
67052;BME280;53957;47.222;18.670;2023-04-03T04:53:22;100225.25;;;2.72;100.00
67052;BME280;53957;47.222;18.670;2023-04-03T04:56:48;100223.84;;;2.81;100.00
67052;BME280;53957;47.222;18.670;2023-04-03T04:59:52;100229.50;;;2.73;100.00
67052;BME280;53957;47.222;18.670;2023-04-03T05:03:15;100215.84;;;2.76;100.00
67052;BME280;53957;47.222;18.670;2023-04-03T05:06:20;100225.25;;;2.72;100.00
67052;BME280;53957;47.222;18.670;2023-04-03T05:09:26;100235.78;;;2.72;100.00
67052;BME280;53957;47.222;18.670;2023-04-03T05:12:50;100232.12;;;2.73;100.00
67052;BME280;53957;47.222;18.670;2023-04-03T05:15:53;100232.12;;;2.73;100.00
67052;BME280;53957;47.222;18.670;2023-04-03T05:18:56;100234.19;;;2.71;100.00
67052;BME280;53957;47.222;18.670;2023-04-03T05:21:59;100232.12;;;2.73;100.00
67052;BME280;53957;47.222;18.670;2023-04-03T05:25:06;100243.31;;;2.80;100.00
67052;BME280;53957;47.222;18.670;2023-04-03T05:28:11;100245.75;;;2.82;100.00
67052;BME280;53957;47.222;18.670;2023-04-03T05:31:15;100249.28;;;3.11;100.00
67052;BME280;53957;47.222;18.670;2023-04-03T05:34:18;100252.22;;;4.13;100.00
67052;BME280;53957;47.222;18.670;2023-04-03T05:37:22;100252.69;;;4.78;100.00
67052;BME280;53957;47.222;18.670;2023-04-03T05:40:25;100252.94;;;5.88;93.92
67052;BME280;53957;47.222;18.670;2023-04-03T05:43:29;100252.03;;;6.37;91.70
67052;BME280;53957;47.222;18.670;2023-04-03T05:46:33;100254.13;;;6.72;88.26
67052;BME280;53957;47.222;18.670;2023-04-03T05:49:38;100252.06;;;6.80;86.88
67052;BME280;53957;47.222;18.670;2023-04-03T05:52:48;100246.09;;;7.05;84.48
67052;BME280;53957;47.222;18.670;2023-04-03T05:55:52;100251.81;;;6.81;87.12
67052;BME280;53957;47.222;18.670;2023-04-03T05:58:56;100250.66;;;7.15;84.13
67052;BME280;53957;47.222;18.670;2023-04-03T06:02:03;100253.59;;;7.23;84.53
67052;BME280;53957;47.222;18.670;2023-04-03T06:05:07;100257.44;;;7.48;82.14
67052;BME280;53957;47.222;18.670;2023-04-03T06:08:11;100254.88;;;8.00;78.20
67052;BME280;53957;47.222;18.670;2023-04-03T06:11:14;100259.69;;;8.24;78.01
67052;BME280;53957;47.222;18.670;2023-04-03T06:14:18;100262.59;;;8.43;77.42
67052;BME280;53957;47.222;18.670;2023-04-03T06:17:41;100252.66;;;7.55;78.54
67052;BME280;53957;47.222;18.670;2023-04-03T06:20:45;100264.09;;;7.66;79.77
67052;BME280;53957;47.222;18.670;2023-04-03T06:23:48;100261.44;;;7.66;80.10
67052;BME280;53957;47.222;18.670;2023-04-03T06:26:51;100275.34;;;8.35;76.57
67052;BME280;53957;47.222;18.670;2023-04-03T06:29:55;100274.84;;;8.38;76.59
67052;BME280;53957;47.222;18.670;2023-04-03T06:32:58;100280.66;;;8.25;77.94
67052;BME280;53957;47.222;18.670;2023-04-03T06:36:05;100274.53;;;8.81;74.93
67052;BME280;53957;47.222;18.670;2023-04-03T06:39:13;100274.78;;;8.02;76.39
67052;BME280;53957;47.222;18.670;2023-04-03T06:42:17;100280.66;;;8.35;76.51
67052;BME280;53957;47.222;18.670;2023-04-03T06:45:20;100286.91;;;9.32;71.28
67052;BME280;53957;47.222;18.670;2023-04-03T06:48:24;100283.84;;;8.94;71.15
67052;BME280;53957;47.222;18.670;2023-04-03T09:08:21;100346.28;;;9.23;65.21
67052;BME280;53957;47.222;18.670;2023-04-03T09:15:17;100345.72;;;9.41;65.48
67052;BME280;53957;47.222;18.670;2023-04-03T09:18:39;100336.38;;;9.44;67.14
67052;BME280;53957;47.222;18.670;2023-04-03T09:21:44;100343.84;;;9.37;62.60
67052;BME280;53957;47.222;18.670;2023-04-03T09:25:02;100352.34;;;9.49;64.56
67052;BME280;53957;47.222;18.670;2023-04-03T09:28:06;100344.44;;;9.18;65.66
67052;BME280;53957;47.222;18.670;2023-04-03T09:31:24;100335.19;;;8.69;65.50
67052;BME280;53957;47.222;18.670;2023-04-03T09:34:35;100349.56;;;8.78;66.89
67052;BME280;53957;47.222;18.670;2023-04-03T09:37:41;100348.50;;;8.79;67.02
67052;BME280;53957;47.222;18.670;2023-04-03T09:40:51;100350.59;;;8.98;66.67
67052;BME280;53957;47.222;18.670;2023-04-03T09:44:20;100348.44;;;9.00;65.42
67052;BME280;53957;47.222;18.670;2023-04-03T09:50:28;100347.66;;;8.99;66.12
67052;BME280;53957;47.222;18.670;2023-04-03T09:53:38;100347.09;;;9.18;65.80
67052;BME280;53957;47.222;18.670;2023-04-03T09:56:49;100349.19;;;9.31;64.80
67052;BME280;53957;47.222;18.670;2023-04-03T10:00:01;100343.88;;;9.31;63.84
67052;BME280;53957;47.222;18.670;2023-04-03T10:03:30;100351.28;;;9.45;66.97
67052;BME280;53957;47.222;18.670;2023-04-03T10:06:42;100339.19;;;9.73;62.56
67052;BME280;53957;47.222;18.670;2023-04-03T10:13:19;100344.69;;;10.32;62.59
67052;BME280;53957;47.222;18.670;2023-04-03T10:16:26;100345.03;;;10.65;63.95
67052;BME280;53957;47.222;18.670;2023-04-03T10:40:01;100338.81;;;10.40;58.38
67052;BME280;53957;47.222;18.670;2023-04-03T10:52:43;100327.78;;;11.11;51.90
67052;BME280;53957;47.222;18.670;2023-04-03T10:56:01;100318.84;;;11.69;55.75
67052;BME280;53957;47.222;18.670;2023-04-03T11:02:30;100316.53;;;11.82;49.18
67052;BME280;53957;47.222;18.670;2023-04-03T11:05:37;100314.72;;;11.77;52.21
67052;BME280;53957;47.222;18.670;2023-04-03T11:12:23;100307.06;;;11.03;53.04
67052;BME280;53957;47.222;18.670;2023-04-03T11:15:29;100304.63;;;11.31;52.82
67052;BME280;53957;47.222;18.670;2023-04-03T11:22:09;100299.78;;;10.84;56.20
67052;BME280;53957;47.222;18.670;2023-04-03T11:25:20;100283.72;;;10.60;56.82
67052;BME280;53957;47.222;18.670;2023-04-03T11:28:25;100287.97;;;10.90;55.36
67052;BME280;53957;47.222;18.670;2023-04-03T11:31:41;100294.44;;;11.08;55.74
67052;BME280;53957;47.222;18.670;2023-04-03T11:34:50;100277.50;;;10.70;54.45
67052;BME280;53957;47.222;18.670;2023-04-03T11:38:00;100284.25;;;10.22;55.16
67052;BME280;53957;47.222;18.670;2023-04-03T11:41:06;100283.47;;;10.22;53.94
67052;BME280;53957;47.222;18.670;2023-04-03T11:44:35;100297.00;;;10.65;54.57
67052;BME280;53957;47.222;18.670;2023-04-03T11:47:53;100279.75;;;10.57;53.57
67052;BME280;53957;47.222;18.670;2023-04-03T11:51:00;100286.69;;;10.58;54.35
67052;BME280;53957;47.222;18.670;2023-04-03T11:54:36;100281.00;;;10.30;56.37
67052;BME280;53957;47.222;18.670;2023-04-03T12:01:11;100279.81;;;10.12;56.80
67052;BME280;53957;47.222;18.670;2023-04-03T12:04:33;100284.50;;;10.26;57.29
67052;BME280;53957;47.222;18.670;2023-04-03T12:07:36;100273.16;;;10.10;57.70
67052;BME280;53957;47.222;18.670;2023-04-03T12:10:40;100273.84;;;10.26;53.79
67052;BME280;53957;47.222;18.670;2023-04-03T12:16:55;100276.62;;;9.71;54.36
67052;BME280;53957;47.222;18.670;2023-04-03T12:20:00;100270.44;;;9.75;54.37
67052;BME280;53957;47.222;18.670;2023-04-03T12:23:08;100273.19;;;10.05;59.71
67052;BME280;53957;47.222;18.670;2023-04-03T12:26:50;100273.25;;;10.34;55.03
67052;BME280;53957;47.222;18.670;2023-04-03T12:36:58;100257.00;;;10.30;53.31
67052;BME280;53957;47.222;18.670;2023-04-03T12:40:16;100253.87;;;10.23;54.52
67052;BME280;53957;47.222;18.670;2023-04-03T12:46:43;100256.06;;;10.80;55.36
67052;BME280;53957;47.222;18.670;2023-04-03T12:49:48;100254.37;;;10.89;55.99
67052;BME280;53957;47.222;18.670;2023-04-03T12:53:06;100249.00;;;10.65;51.55
67052;BME280;53957;47.222;18.670;2023-04-03T12:59:29;100252.31;;;10.57;56.50
67052;BME280;53957;47.222;18.670;2023-04-03T13:02:36;100246.69;;;10.58;52.60
67052;BME280;53957;47.222;18.670;2023-04-03T13:05:44;100238.44;;;10.55;55.81
67052;BME280;53957;47.222;18.670;2023-04-03T13:08:52;100234.94;;;10.25;53.92
67052;BME280;53957;47.222;18.670;2023-04-03T13:12:02;100229.38;;;10.21;54.81
67052;BME280;53957;47.222;18.670;2023-04-03T13:15:43;100229.75;;;10.44;56.00
67052;BME280;53957;47.222;18.670;2023-04-03T13:18:52;100233.09;;;10.55;53.76
67052;BME280;53957;47.222;18.670;2023-04-03T13:22:03;100221.97;;;10.47;51.99
67052;BME280;53957;47.222;18.670;2023-04-03T13:25:09;100219.91;;;10.39;52.40
67052;BME280;53957;47.222;18.670;2023-04-03T13:28:16;100218.00;;;10.10;52.59
67052;BME280;53957;47.222;18.670;2023-04-03T13:31:32;100216.41;;;10.09;55.18
67052;BME280;53957;47.222;18.670;2023-04-03T13:34:40;100221.62;;;10.25;54.36
67052;BME280;53957;47.222;18.670;2023-04-03T13:37:55;100219.47;;;10.56;54.16
67052;BME280;53957;47.222;18.670;2023-04-03T13:41:02;100212.19;;;11.35;49.95
67052;BME280;53957;47.222;18.670;2023-04-03T13:47:21;100212.63;;;10.50;52.87
67052;BME280;53957;47.222;18.670;2023-04-03T13:50:25;100217.41;;;10.48;54.97
67052;BME280;53957;47.222;18.670;2023-04-03T13:53:33;100217.84;;;10.31;51.95
67052;BME280;53957;47.222;18.670;2023-04-03T13:56:38;100217.31;;;9.94;54.19
67052;BME280;53957;47.222;18.670;2023-04-03T13:59:46;100210.72;;;9.42;52.14
67052;BME280;53957;47.222;18.670;2023-04-03T14:02:49;100214.97;;;9.43;53.48
67052;BME280;53957;47.222;18.670;2023-04-03T14:05:52;100208.66;;;9.33;57.13
67052;BME280;53957;47.222;18.670;2023-04-03T14:08:55;100209.84;;;9.57;59.36
67052;BME280;53957;47.222;18.670;2023-04-03T14:12:06;100206.31;;;9.22;54.94
67052;BME280;53957;47.222;18.670;2023-04-03T14:15:26;100199.78;;;8.88;54.88
67052;BME280;53957;47.222;18.670;2023-04-03T14:18:32;100204.00;;;8.99;55.65
67052;BME280;53957;47.222;18.670;2023-04-03T14:21:35;100202.19;;;8.90;57.57
67052;BME280;53957;47.222;18.670;2023-04-03T14:24:38;100205.38;;;8.92;55.24
67052;BME280;53957;47.222;18.670;2023-04-03T14:27:56;100207.03;;;8.67;56.81
67052;BME280;53957;47.222;18.670;2023-04-03T14:31:01;100211.84;;;8.49;55.30
67052;BME280;53957;47.222;18.670;2023-04-03T14:34:06;100226.75;;;8.30;56.47
67052;BME280;53957;47.222;18.670;2023-04-03T14:37:14;100227.53;;;8.25;56.88
67052;BME280;53957;47.222;18.670;2023-04-03T14:40:23;100231.22;;;7.98;55.05
67052;BME280;53957;47.222;18.670;2023-04-03T14:43:27;100231.50;;;7.97;56.56
67052;BME280;53957;47.222;18.670;2023-04-03T14:46:33;100233.87;;;7.93;57.31
67052;BME280;53957;47.222;18.670;2023-04-03T14:50:04;100242.91;;;7.92;55.21
67052;BME280;53957;47.222;18.670;2023-04-03T14:53:11;100233.87;;;7.93;58.03
67052;BME280;53957;47.222;18.670;2023-04-03T14:56:18;100234.41;;;7.90;57.20
67052;BME280;53957;47.222;18.670;2023-04-03T14:59:24;100234.91;;;7.66;56.52
67052;BME280;53957;47.222;18.670;2023-04-03T15:02:33;100236.53;;;7.93;57.24
67052;BME280;53957;47.222;18.670;2023-04-03T15:05:47;100236.00;;;7.76;56.60
67052;BME280;53957;47.222;18.670;2023-04-03T15:08:51;100236.00;;;7.81;56.51
67052;BME280;53957;47.222;18.670;2023-04-03T15:11:54;100246.12;;;7.94;56.71
67052;BME280;53957;47.222;18.670;2023-04-03T15:14:57;100238.16;;;7.99;56.27
67052;BME280;53957;47.222;18.670;2023-04-03T15:18:06;100252.47;;;7.93;55.39
67052;BME280;53957;47.222;18.670;2023-04-03T15:21:09;100245.06;;;7.95;55.05
67052;BME280;53957;47.222;18.670;2023-04-03T15:24:12;100243.72;;;7.93;55.71
67052;BME280;53957;47.222;18.670;2023-04-03T15:27:15;100244.00;;;8.06;56.44
67052;BME280;53957;47.222;18.670;2023-04-03T15:30:18;100245.59;;;8.18;58.00
67052;BME280;53957;47.222;18.670;2023-04-03T15:33:22;100236.53;;;7.93;55.24
67052;BME280;53957;47.222;18.670;2023-04-03T15:36:25;100233.09;;;7.98;55.53
67052;BME280;53957;47.222;18.670;2023-04-03T15:39:36;100233.56;;;7.69;54.86
67052;BME280;53957;47.222;18.670;2023-04-03T15:42:39;100231.19;;;7.67;56.71
67052;BME280;53957;47.222;18.670;2023-04-03T15:45:43;100224.00;;;7.63;55.75
67052;BME280;53957;47.222;18.670;2023-04-03T15:48:46;100228.47;;;7.41;54.78
67052;BME280;53957;47.222;18.670;2023-04-03T15:51:50;100229.56;;;7.51;54.50
67052;BME280;53957;47.222;18.670;2023-04-03T15:54:53;100227.41;;;7.37;55.86
67052;BME280;53957;47.222;18.670;2023-04-03T15:58:00;100220.97;;;7.23;56.04
67052;BME280;53957;47.222;18.670;2023-04-03T16:01:04;100225.25;;;7.29;57.04
67052;BME280;53957;47.222;18.670;2023-04-03T16:04:09;100235.00;;;7.18;56.03
67052;BME280;53957;47.222;18.670;2023-04-03T16:07:20;100227.31;;;7.12;54.32
67052;BME280;53957;47.222;18.670;2023-04-03T16:10:28;100244.16;;;6.90;54.65
67052;BME280;53957;47.222;18.670;2023-04-03T16:13:36;100221.34;;;6.89;54.16
67052;BME280;53957;47.222;18.670;2023-04-03T16:16:44;100229.25;;;6.79;54.68
67052;BME280;53957;47.222;18.670;2023-04-03T16:20:08;100235.59;;;6.77;53.12
67052;BME280;53957;47.222;18.670;2023-04-03T16:23:48;100234.00;;;6.76;53.50
67052;BME280;53957;47.222;18.670;2023-04-03T16:26:51;100237.22;;;6.79;54.69
67052;BME280;53957;47.222;18.670;2023-04-03T16:29:56;100237.66;;;6.65;56.25
67052;BME280;53957;47.222;18.670;2023-04-03T16:32:59;100250.37;;;6.63;55.49
67052;BME280;53957;47.222;18.670;2023-04-03T16:36:24;100253.25;;;6.56;55.49
67052;BME280;53957;47.222;18.670;2023-04-03T16:40:09;100245.53;;;6.50;55.80
67052;BME280;53957;47.222;18.670;2023-04-03T16:43:15;100252.62;;;6.44;54.48
67052;BME280;53957;47.222;18.670;2023-04-03T16:46:38;100250.19;;;6.37;53.42
67052;BME280;53957;47.222;18.670;2023-04-03T16:49:41;100257.63;;;6.40;54.10
67052;BME280;53957;47.222;18.670;2023-04-03T16:52:45;100256.75;;;6.29;53.04
67052;BME280;53957;47.222;18.670;2023-04-03T16:56:09;100252.81;;;6.32;53.63
67052;BME280;53957;47.222;18.670;2023-04-03T16:59:12;100260.91;;;6.20;52.99
67052;BME280;53957;47.222;18.670;2023-04-03T17:02:16;100265.97;;;6.22;52.66
67052;BME280;53957;47.222;18.670;2023-04-03T17:05:21;100269.16;;;6.24;53.37
67052;BME280;53957;47.222;18.670;2023-04-03T17:08:25;100274.34;;;6.13;52.16
67052;BME280;53957;47.222;18.670;2023-04-03T17:11:30;100279.66;;;6.13;53.40
67052;BME280;53957;47.222;18.670;2023-04-03T17:14:57;100275.66;;;6.11;53.05
67052;BME280;53957;47.222;18.670;2023-04-03T17:18:40;100278.31;;;6.11;53.60
67052;BME280;53957;47.222;18.670;2023-04-03T17:22:24;100284.16;;;6.13;51.36
67052;BME280;53957;47.222;18.670;2023-04-03T17:26:08;100282.81;;;6.10;51.76
67052;BME280;53957;47.222;18.670;2023-04-03T17:59:59;100351.00;;;5.76;52.92
67052;BME280;53957;47.222;18.670;2023-04-03T18:03:04;100363.66;;;5.74;53.47
67052;BME280;53957;47.222;18.670;2023-04-03T18:06:36;100365.53;;;5.73;54.52
67052;BME280;53957;47.222;18.670;2023-04-03T18:10:03;100369.72;;;5.69;55.00
67052;BME280;53957;47.222;18.670;2023-04-03T18:13:13;100375.28;;;5.73;55.00
67052;BME280;53957;47.222;18.670;2023-04-03T18:16:41;100382.13;;;5.69;55.01
67052;BME280;53957;47.222;18.670;2023-04-03T18:19:45;100389.94;;;5.58;56.05
67052;BME280;53957;47.222;18.670;2023-04-03T18:23:07;100389.22;;;5.63;57.23
67052;BME280;53957;47.222;18.670;2023-04-03T18:26:58;100389.13;;;5.58;57.25
67052;BME280;53957;47.222;18.670;2023-04-03T18:30:21;100391.72;;;5.53;57.32
67052;BME280;53957;47.222;18.670;2023-04-03T18:33:47;100399.09;;;5.51;57.94
67052;BME280;53957;47.222;18.670;2023-04-03T18:37:25;100401.66;;;5.45;58.55
67052;BME280;53957;47.222;18.670;2023-04-03T18:40:32;100402.78;;;5.50;58.43
67052;BME280;53957;47.222;18.670;2023-04-03T18:43:45;100419.16;;;5.46;59.55
67052;BME280;53957;47.222;18.670;2023-04-03T18:46:48;100413.06;;;5.46;58.38
67052;BME280;53957;47.222;18.670;2023-04-03T18:50:31;100421.31;;;5.50;59.91
67052;BME280;53957;47.222;18.670;2023-04-03T18:53:47;100418.56;;;5.44;61.59
67052;BME280;53957;47.222;18.670;2023-04-03T18:56:54;100434.03;;;5.53;61.31
67052;BME280;53957;47.222;18.670;2023-04-03T19:00:38;100423.47;;;5.53;63.22
67052;BME280;53957;47.222;18.670;2023-04-03T19:03:46;100435.09;;;5.52;62.48
67052;BME280;53957;47.222;18.670;2023-04-03T19:07:09;100434.22;;;5.46;63.08
67052;BME280;53957;47.222;18.670;2023-04-03T19:10:32;100442.94;;;5.46;63.08
67052;BME280;53957;47.222;18.670;2023-04-03T19:13:56;100446.22;;;5.54;63.11
67052;BME280;53957;47.222;18.670;2023-04-03T19:17:36;100441.19;;;5.52;63.75
67052;BME280;53957;47.222;18.670;2023-04-03T19:21:08;100439.63;;;5.73;59.18
67052;BME280;53957;47.222;18.670;2023-04-03T19:24:39;100435.59;;;5.48;63.32
67052;BME280;53957;47.222;18.670;2023-04-03T19:27:53;100445.38;;;5.31;62.45
67052;BME280;53957;47.222;18.670;2023-04-03T19:31:01;100437.13;;;5.27;66.02
67052;BME280;53957;47.222;18.670;2023-04-03T19:34:22;100445.06;;;5.27;67.70
67052;BME280;53957;47.222;18.670;2023-04-03T19:37:26;100448.56;;;5.33;63.88
67052;BME280;53957;47.222;18.670;2023-04-03T19:40:30;100453.87;;;5.33;66.58
67052;BME280;53957;47.222;18.670;2023-04-03T19:43:34;100461.66;;;5.23;66.32
67052;BME280;53957;47.222;18.670;2023-04-03T19:46:37;100454.19;;;5.20;64.37
67052;BME280;53957;47.222;18.670;2023-04-03T19:49:50;100442.41;;;5.27;69.15
67052;BME280;53957;47.222;18.670;2023-04-03T19:53:13;100439.78;;;5.10;67.95
67052;BME280;53957;47.222;18.670;2023-04-03T19:56:21;100431.50;;;5.07;66.75
67052;BME280;53957;47.222;18.670;2023-04-03T19:59:46;100435.78;;;5.08;67.23
67052;BME280;53957;47.222;18.670;2023-04-03T20:02:54;100438.84;;;4.88;66.43
67052;BME280;53957;47.222;18.670;2023-04-03T20:05:58;100435.34;;;4.82;67.59
67052;BME280;53957;47.222;18.670;2023-04-03T20:09:04;100450.09;;;4.78;67.15
67052;BME280;53957;47.222;18.670;2023-04-03T20:12:08;100447.19;;;4.79;66.11
67052;BME280;53957;47.222;18.670;2023-04-03T20:15:12;100453.91;;;4.70;66.61
67052;BME280;53957;47.222;18.670;2023-04-03T20:18:20;100451.75;;;4.67;66.48
67052;BME280;53957;47.222;18.670;2023-04-03T20:21:31;100452.34;;;4.57;66.32
67052;BME280;53957;47.222;18.670;2023-04-03T20:24:57;100451.22;;;4.53;66.74
67052;BME280;53957;47.222;18.670;2023-04-03T20:28:23;100443.78;;;4.50;67.35